Jeffers, MN

5:41 AM CST on February 11, 2016 (GMT -0600)
MNDOT | | Change Station
CLOSE
Current Station
Personal Weather Station
Location: Jeffers, MN
Elevation: 1427 ft
Nearby Weather Stations

Elev 1427 ft 44.08 °N, 95.12 °W | Updated 238 days ago

Partly Cloudy
Partly Cloudy
3 °F
Feels Like 3 °F
N
3
Wind Variable Wind from South
Gusts mph

Today
High -- | Low -- °F
--% Chance of Precip.
Yesterday
High -- | Low -- °F
Precip. -- in
Pressure 30.27 in
Visibility 10.0 miles
Clouds Clear
Dew Point -2 °F
Humidity 82%
Rainfall in
Snow Depth Not available.
7:26 AM 5:43 PM
Waxing Crescent, 11% visible
METAR KMWM 111134Z AUTO 00000KT 10SM CLR M21/M22 A3027 RMK AO2
Pressure 30.27 in
Visibility 10.0 miles
Clouds Clear
Dew Point -2 °F
Humidity 82%
Rainfall in
Snow Depth Not available.
7:26 AM 5:43 PM
Waxing Crescent, 11% visible
METAR KMWM 111134Z AUTO 00000KT 10SM CLR M21/M22 A3027 RMK AO2

10-Day Weather Forecast

Almanac

Astronomy

Feb. 11, 2016 Rise Set
Actual Time
Civil Twilight
Nautical Twilight
Astronomical Twilight
Moon
Length of Visible Light
Length of Day
Tomorrow will be .
, % of the Moon is Illuminated

Today's Extremes

State Highs State Lows

Community

WunderPhotos

Upload Photos

1,892,030 photos uploaded!

WunderBlog® & News

Nearby

Air Quality

  Air Quality AQ Index Pollutant
Not available.

Snow Depth

Station Depth Elevation

Earthquake Activity

City Distance Mag. Time & Date
Minimum magnitude displayed is 2.5.

Coastal Water Temperatures

Place Temperature

Stations

Nearby Weather Stations

Station Location Temp. Windchill Dew Point Humidity Wind Precip. Elev Updated Type
                   

Watches & Warnings

There are currently no watches in effect.